Time;durP1;ratioP1;P1;durP2;ratioP2;P2;SDS_P1;SDS_P2;PMS_P1;PMS_P2;Temp;Humidity;BMP_temperature;BMP_pressure;BME280_temperature;BME280_humidity;BME280_pressure;Samples;Min_cycle;Max_cycle;Signal;HPM_P1;HPM_P2
2022/08/17 00:00:41;;;;;;;4.63;4.15;;;20.20;99.90;;;;;;4990136;28;20669;-88
2022/08/17 00:03:13;;;;;;;4.68;4.28;;;20.20;99.90;;;;;;4990267;28;20261;-90
2022/08/17 00:05:48;;;;;;;6.10;4.10;;;20.10;99.90;;;;;;4991737;28;20191;-86
2022/08/17 00:08:16;;;;;;;5.43;3.95;;;20.10;99.90;;;;;;4990412;28;20172;-88
2022/08/17 00:10:44;;;;;;;5.95;4.80;;;20.10;99.90;;;;;;4990128;28;20196;-88
2022/08/17 00:13:14;;;;;;;5.00;4.03;;;20.10;99.90;;;;;;4990166;28;20275;-88
2022/08/17 00:15:42;;;;;;;4.32;3.90;;;20.00;99.90;;;;;;4990301;28;20213;-87
2022/08/17 00:18:09;;;;;;;4.38;3.90;;;20.00;99.90;;;;;;5335580;23;20664;-87
2022/08/17 00:20:34;;;;;;;5.53;3.60;;;20.00;99.90;;;;;;4985784;28;20195;-88
2022/08/17 00:23:18;;;;;;;7.03;4.03;;;19.90;99.90;;;;;;4991431;28;20167;-88
2022/08/17 00:25:45;;;;;;;5.20;3.95;;;19.90;99.90;;;;;;4975404;28;20771;-87
2022/08/17 00:28:14;;;;;;;5.10;4.00;;;19.90;99.90;;;;;;4970975;28;20176;-87
2022/08/17 00:30:41;;;;;;;5.43;3.88;;;19.90;99.90;;;;;;4971245;28;20205;-89
2022/08/17 00:33:12;;;;;;;5.78;4.07;;;20.00;99.90;;;;;;4971079;28;20176;-86
2022/08/17 00:35:40;;;;;;;5.72;4.28;;;19.90;99.90;;;;;;4970933;28;20197;-87
2022/08/17 00:38:08;;;;;;;4.57;4.03;;;19.90;99.90;;;;;;4970891;28;20172;-87
2022/08/17 00:40:54;;;;;;;4.63;4.13;;;19.90;99.90;;;;;;4970774;28;20680;-87
2022/08/17 00:43:27;;;;;;;4.53;4.13;;;19.90;99.90;;;;;;4971028;28;20243;-87
2022/08/17 00:45:53;;;;;;;6.20;4.72;;;19.80;99.90;;;;;;4972077;28;20251;-87
2022/08/17 00:48:19;;;;;;;5.00;4.40;;;19.80;99.90;;;;;;4971015;28;20199;-86
2022/08/17 00:51:08;;;;;;;5.88;4.32;;;19.80;99.90;;;;;;4970745;28;20204;-88
2022/08/17 00:53:37;;;;;;;5.60;4.25;;;19.80;99.90;;;;;;4971952;28;20200;-89
2022/08/17 00:56:06;;;;;;;4.55;4.03;;;19.80;99.90;;;;;;4972364;28;20329;-87
2022/08/17 00:58:34;;;;;;;4.78;4.30;;;19.80;99.90;;;;;;4974175;28;20177;-88
2022/08/17 01:01:02;;;;;;;8.48;4.15;;;19.80;99.90;;;;;;4973664;28;20760;-87
2022/08/17 01:03:30;;;;;;;6.30;4.72;;;19.80;99.90;;;;;;4975140;28;20169;-87
2022/08/17 01:06:00;;;;;;;4.80;4.30;;;19.70;99.90;;;;;;4974288;28;20723;-86
2022/08/17 01:08:28;;;;;;;6.15;4.43;;;19.60;99.90;;;;;;4974014;28;20204;-86
2022/08/17 01:10:57;;;;;;;7.80;4.80;;;19.60;99.90;;;;;;4973754;28;20228;-88
2022/08/17 01:13:26;;;;;;;5.35;4.00;;;19.60;99.90;;;;;;4974042;28;20180;-86
2022/08/17 01:15:56;;;;;;;7.25;4.80;;;19.60;99.90;;;;;;4974167;28;20580;-87
2022/08/17 01:18:23;;;;;;;5.18;4.68;;;19.60;99.90;;;;;;4970273;28;20583;-86
2022/08/17 01:20:52;;;;;;;6.53;4.43;;;19.60;99.90;;;;;;4955434;28;20748;-88
2022/08/17 01:23:21;;;;;;;8.73;4.47;;;19.60;99.90;;;;;;4954310;28;20184;-87
2022/08/17 01:25:56;;;;;;;4.88;4.10;;;19.50;99.90;;;;;;4953865;28;20548;-87
2022/08/17 01:28:25;;;;;;;6.32;4.07;;;19.40;99.90;;;;;;4953336;29;20188;-87
2022/08/17 01:30:53;;;;;;;4.60;4.10;;;19.40;99.90;;;;;;4953991;29;20260;-88
2022/08/17 01:33:19;;;;;;;3.88;3.58;;;19.40;99.90;;;;;;4953646;29;20186;-88
2022/08/17 01:35:45;;;;;;;5.18;4.60;;;19.30;99.90;;;;;;4953608;29;20240;-88
2022/08/17 01:38:11;;;;;;;4.65;4.15;;;19.30;99.90;;;;;;4953781;29;20748;-88
2022/08/17 01:40:49;;;;;;;5.20;4.20;;;19.20;99.90;;;;;;4953720;28;20755;-87
2022/08/17 01:43:27;;;;;;;6.40;4.57;;;19.20;99.90;;;;;;4953899;29;20180;-88
2022/08/17 01:45:55;;;;;;;8.13;4.38;;;19.10;99.90;;;;;;4953882;28;20209;-87
2022/08/17 01:48:22;;;;;;;7.50;5.10;;;19.10;99.90;;;;;;4953848;28;20162;-87
2022/08/17 01:50:52;;;;;;;5.15;4.65;;;19.20;99.90;;;;;;4953581;29;20201;-86
2022/08/17 01:53:25;;;;;;;5.47;4.03;;;19.20;99.90;;;;;;4953729;28;20170;-88
2022/08/17 01:55:54;;;;;;;4.15;3.75;;;19.20;99.90;;;;;;4953911;28;20227;-86
2022/08/17 01:58:20;;;;;;;4.15;3.80;;;19.20;99.90;;;;;;4953986;29;20177;-88
2022/08/17 02:00:50;;;;;;;8.23;3.80;;;19.20;99.90;;;;;;4953491;29;20666;-89
2022/08/17 02:03:20;;;;;;;7.30;4.15;;;19.20;99.90;;;;;;4969622;28;20178;-89
2022/08/17 02:05:47;;;;;;;4.43;4.00;;;19.20;99.90;;;;;;4953398;28;20197;-87
2022/08/17 02:08:19;;;;;;;4.93;4.38;;;19.10;99.90;;;;;;4953409;29;20169;-88
2022/08/17 02:10:46;;;;;;;4.85;4.13;;;19.10;99.90;;;;;;4953295;29;20256;-86
2022/08/17 02:13:12;;;;;;;7.78;4.97;;;19.00;99.90;;;;;;4953258;29;20240;-89
2022/08/17 02:15:40;;;;;;;4.60;4.13;;;19.00;99.90;;;;;;4953028;29;20174;-87
2022/08/17 02:18:09;;;;;;;5.03;4.45;;;19.00;99.90;;;;;;4963287;28;20238;-88
2022/08/17 02:20:37;;;;;;;6.60;4.60;;;19.00;99.90;;;;;;4975698;28;20204;-87
2022/08/17 02:23:03;;;;;;;6.03;4.97;;;19.00;99.90;;;;;;4975671;28;20651;-88
2022/08/17 02:25:32;;;;;;;4.85;4.30;;;18.90;99.90;;;;;;4975450;28;20219;-86
2022/08/17 02:27:58;;;;;;;6.18;4.63;;;18.80;99.90;;;;;;4975486;28;20580;-88
2022/08/17 02:30:25;;;;;;;5.88;4.60;;;18.80;99.90;;;;;;4975654;28;20191;-86
2022/08/17 02:32:54;;;;;;;5.75;4.75;;;18.80;99.90;;;;;;4975510;28;20199;-87
2022/08/17 02:35:21;;;;;;;7.00;4.53;;;18.80;99.90;;;;;;4975965;28;20176;-87
2022/08/17 02:37:47;;;;;;;6.28;4.90;;;18.70;99.90;;;;;;4975213;28;20164;-88
2022/08/17 02:40:14;;;;;;;5.28;4.82;;;18.70;99.90;;;;;;4992578;28;20209;-88
2022/08/17 02:42:42;;;;;;;7.18;5.22;;;18.70;99.90;;;;;;4975529;28;20175;-87
2022/08/17 02:45:21;;;;;;;8.65;5.22;;;18.70;99.90;;;;;;4975021;28;20670;-88
2022/08/17 02:47:47;;;;;;;8.05;5.10;;;18.70;99.90;;;;;;4975292;28;20176;-86
2022/08/17 02:50:16;;;;;;;6.63;5.13;;;18.70;99.90;;;;;;4975233;28;20204;-87
2022/08/17 02:52:44;;;;;;;7.30;4.65;;;18.70;99.90;;;;;;4974782;28;20281;-87
2022/08/17 02:55:17;;;;;;;6.22;4.95;;;18.60;99.90;;;;;;4974952;28;20524;-87
2022/08/17 02:57:43;;;;;;;5.68;5.07;;;18.60;99.90;;;;;;4975014;28;20174;-89
2022/08/17 03:00:13;;;;;;;5.43;4.47;;;18.60;99.90;;;;;;4975052;28;20199;-86
2022/08/17 03:02:40;;;;;;;5.20;4.70;;;18.60;99.90;;;;;;4974805;28;20242;-87
2022/08/17 03:05:09;;;;;;;8.18;4.90;;;18.60;99.90;;;;;;4974787;28;20164;-87
2022/08/17 03:07:36;;;;;;;6.50;5.20;;;18.50;99.90;;;;;;4974625;28;20176;-88
2022/08/17 03:10:04;;;;;;;6.30;4.53;;;18.40;99.90;;;;;;4974530;28;20299;-88
2022/08/17 03:12:32;;;;;;;9.70;4.93;;;18.40;99.90;;;;;;4974527;28;20255;-87
2022/08/17 03:15:02;;;;;;;6.47;4.32;;;18.30;99.90;;;;;;4990626;28;20759;-86
2022/08/17 03:17:28;;;;;;;4.80;4.40;;;18.30;99.90;;;;;;4974573;28;20644;-86
2022/08/17 03:19:54;;;;;;;4.50;4.10;;;18.30;99.90;;;;;;4970954;28;20232;-87
2022/08/17 03:22:19;;;;;;;4.55;4.07;;;18.30;99.90;;;;;;4971517;28;20199;-87
2022/08/17 03:24:45;;;;;;;5.28;4.10;;;18.30;99.90;;;;;;4972582;28;20189;-88
2022/08/17 03:27:11;;;;;;;7.45;4.60;;;18.30;99.90;;;;;;4971509;28;20200;-88
2022/08/17 03:29:36;;;;;;;6.15;4.38;;;18.30;99.90;;;;;;4971250;28;20206;-90
2022/08/17 03:32:13;;;;;;;5.22;4.72;;;18.30;99.90;;;;;;4971315;28;20573;-86
2022/08/17 03:34:40;;;;;;;5.25;4.72;;;18.30;99.90;;;;;;4971486;28;20628;-87
2022/08/17 03:37:06;;;;;;;5.40;4.63;;;18.30;99.90;;;;;;4971195;28;20227;-87
2022/08/17 03:39:31;;;;;;;5.25;4.60;;;18.40;99.90;;;;;;4971462;28;20204;-87
2022/08/17 03:42:21;;;;;;;5.78;4.65;;;18.40;99.90;;;;;;4971366;28;20184;-87
2022/08/17 03:44:54;;;;;;;5.13;4.63;;;18.40;99.90;;;;;;4971146;28;20165;-86
2022/08/17 03:58:21;;;;;;;6.72;5.00;;;18.40;99.90;;;;;;4972620;28;20245;-87
2022/08/17 04:00:48;;;;;;;6.90;5.35;;;18.40;99.90;;;;;;4972147;28;20740;-87
2022/08/17 04:03:14;;;;;;;6.18;4.70;;;18.40;99.90;;;;;;4970823;28;20191;-88
2022/08/17 04:05:40;;;;;;;5.72;4.65;;;18.20;99.90;;;;;;4970870;28;20204;-89
2022/08/17 04:08:06;;;;;;;5.75;5.03;;;18.20;99.90;;;;;;4971209;28;20169;-87
2022/08/17 04:10:33;;;;;;;4.93;4.43;;;18.20;99.90;;;;;;4970609;28;20201;-87
2022/08/17 04:12:58;;;;;;;4.57;4.18;;;18.30;99.90;;;;;;4970607;28;20193;-87
2022/08/17 04:15:24;;;;;;;7.03;4.50;;;18.20;99.90;;;;;;4970789;28;20623;-86
2022/08/17 04:17:50;;;;;;;6.22;4.80;;;18.20;99.90;;;;;;4973041;28;20621;-86
2022/08/17 04:20:18;;;;;;;6.57;4.82;;;18.10;99.90;;;;;;4968189;28;20215;-87
2022/08/17 04:23:02;;;;;;;5.45;4.53;;;18.20;99.90;;;;;;4954765;28;20268;-88
2022/08/17 04:25:34;;;;;;;7.70;5.07;;;18.20;99.90;;;;;;4962944;28;20218;-86
2022/08/17 04:28:01;;;;;;;6.40;4.97;;;18.10;99.90;;;;;;4974191;28;20575;-87
2022/08/17 04:30:30;;;;;;;8.00;4.78;;;18.10;99.90;;;;;;4974892;28;20223;-88
2022/08/17 04:33:12;;;;;;;4.63;4.20;;;18.10;99.90;;;;;;4977624;28;20179;-86
2022/08/17 04:35:47;;;;;;;5.75;5.18;;;18.10;99.90;;;;;;4977481;28;20176;-87
2022/08/17 04:38:16;;;;;;;5.95;4.90;;;18.10;99.90;;;;;;4977856;28;20184;-90
2022/08/17 04:43:28;;;;;;;5.28;4.28;;;18.00;99.90;;;;;;4995265;28;20199;-86
2022/08/17 04:46:00;;;;;;;6.15;4.57;;;18.10;99.90;;;;;;4977551;28;20238;-87
2022/08/17 04:48:31;;;;;;;5.00;4.55;;;18.10;99.90;;;;;;4977531;28;20164;-86
2022/08/17 04:50:57;;;;;;;5.10;4.60;;;18.10;99.90;;;;;;4977342;28;20196;-87
2022/08/17 04:53:23;;;;;;;4.72;4.22;;;18.20;99.90;;;;;;4977046;28;20174;-88
2022/08/17 04:55:51;;;;;;;5.35;4.80;;;18.20;99.90;;;;;;4977288;28;20190;-86
2022/08/17 04:58:18;;;;;;;6.38;5.07;;;18.10;99.90;;;;;;4994725;28;20173;-87
2022/08/17 05:00:44;;;;;;;5.60;5.10;;;18.20;99.90;;;;;;4977303;28;20226;-87
2022/08/17 05:03:10;;;;;;;5.85;5.25;;;18.20;99.90;;;;;;4977160;28;20172;-87
2022/08/17 05:05:38;;;;;;;6.07;5.47;;;18.20;99.90;;;;;;4976633;28;20660;-87
2022/08/17 05:08:05;;;;;;;6.60;5.38;;;18.30;99.90;;;;;;4994216;28;20636;-87
2022/08/17 05:10:35;;;;;;;6.03;5.47;;;18.30;99.90;;;;;;4977037;28;20203;-87
2022/08/17 05:13:17;;;;;;;6.43;5.72;;;18.30;99.90;;;;;;4993086;28;20183;-88
2022/08/17 05:15:45;;;;;;;6.75;5.40;;;18.40;99.90;;;;;;4993946;28;20527;-86
2022/08/17 05:18:11;;;;;;;6.95;5.90;;;18.30;99.90;;;;;;4992952;28;20301;-88
2022/08/17 05:20:38;;;;;;;6.68;5.60;;;18.30;99.90;;;;;;4992711;28;20316;-87
2022/08/17 05:23:07;;;;;;;6.75;5.75;;;18.40;99.90;;;;;;4976848;28;20319;-88
2022/08/17 05:25:37;;;;;;;6.30;5.70;;;18.40;99.90;;;;;;4977075;28;20219;-87
2022/08/17 05:28:05;;;;;;;8.68;5.50;;;18.40;99.90;;;;;;4977335;28;20180;-87
2022/08/17 05:30:32;;;;;;;8.38;5.90;;;18.50;99.90;;;;;;4976845;28;20208;-88
2022/08/17 05:33:11;;;;;;;6.30;5.70;;;18.60;99.90;;;;;;4968479;28;20510;-87
2022/08/17 05:35:41;;;;;;;7.25;5.95;;;18.70;99.90;;;;;;4981349;28;20283;-88
2022/08/17 05:38:07;;;;;;;7.50;6.07;;;18.70;99.90;;;;;;4990311;28;20175;-88
2022/08/17 05:40:35;;;;;;;8.93;6.57;;;18.80;99.90;;;;;;4958341;28;20216;-88
2022/08/17 05:43:15;;;;;;;8.38;6.55;;;18.80;99.90;;;;;;4973619;28;20188;-89
2022/08/17 05:45:47;;;;;;;8.98;7.25;;;18.90;99.90;;;;;;4957495;28;20211;-88
2022/08/17 05:48:14;;;;;;;7.03;6.32;;;18.90;99.90;;;;;;4966710;28;20601;-87
2022/08/17 05:50:48;;;;;;;8.55;7.43;;;19.00;99.90;;;;;;4992892;28;20200;-87
2022/08/17 05:53:36;;;;;;;8.65;7.75;;;19.00;99.90;;;;;;4992471;28;20504;-86
2022/08/17 05:56:22;;;;;;;8.70;6.90;;;19.00;99.90;;;;;;4973159;28;20197;-87
2022/08/17 05:59:11;;;;;;;8.45;7.55;;;19.10;99.90;;;;;;4983620;28;20176;-88
2022/08/17 06:02:07;;;;;;;10.50;7.57;;;19.10;99.90;;;;;;4973148;28;20260;-88
2022/08/17 06:04:45;;;;;;;11.63;9.15;;;19.30;99.90;;;;;;4936746;28;20220;-89
2022/08/17 06:07:20;;;;;;;14.77;8.00;;;19.30;99.90;;;;;;4973162;28;20687;-89
2022/08/17 06:09:49;;;;;;;12.88;9.38;;;19.40;99.90;;;;;;4972471;28;20228;-87
2022/08/17 06:12:37;;;;;;;9.10;8.20;;;19.50;99.90;;;;;;4973209;28;20177;-87
2022/08/17 06:15:15;;;;;;;10.73;8.73;;;19.50;99.90;;;;;;4993160;28;20207;-87
2022/08/17 06:17:41;;;;;;;12.38;9.18;;;19.60;99.90;;;;;;4993146;28;20179;-87
2022/08/17 06:20:14;;;;;;;10.32;9.30;;;19.70;99.90;;;;;;4975793;28;20262;-87
2022/08/17 06:22:48;;;;;;;12.27;10.20;;;19.70;99.90;;;;;;4993378;28;20172;-87
2022/08/17 06:25:16;;;;;;;9.88;8.55;;;19.80;99.90;;;;;;4992672;28;20188;-89
2022/08/17 06:41:19;;;;;;;10.52;8.95;;;20.30;99.90;;;;;;4993188;28;20392;-88
2022/08/17 06:43:55;;;;;;;12.57;8.55;;;20.40;99.90;;;;;;4975484;28;20663;-88
2022/08/17 06:46:45;;;;;;;8.63;7.72;;;20.50;99.90;;;;;;4992846;28;20690;-87
2022/08/17 06:49:25;;;;;;;11.45;10.00;;;20.60;99.90;;;;;;4975275;28;20172;-88
2022/08/17 06:52:05;;;;;;;10.02;8.35;;;20.70;99.90;;;;;;4975724;28;20172;-87
2022/08/17 06:54:40;;;;;;;10.80;8.85;;;20.80;99.90;;;;;;4991580;28;20161;-88
2022/08/17 06:57:19;;;;;;;10.57;7.80;;;20.90;99.90;;;;;;4991676;28;20183;-87
2022/08/17 07:00:12;;;;;;;11.10;8.07;;;21.00;99.90;;;;;;4992125;28;20222;-89
2022/08/17 07:02:45;;;;;;;10.55;8.65;;;21.20;99.90;;;;;;4975519;28;20172;-89
2022/08/17 07:05:14;;;;;;;11.63;7.90;;;21.30;99.90;;;;;;4975757;28;20222;-89
2022/08/17 07:08:02;;;;;;;9.15;8.13;;;21.40;99.90;;;;;;4975382;28;20180;-87
2022/08/17 07:10:36;;;;;;;10.18;8.65;;;21.50;99.90;;;;;;4992906;28;20601;-89
2022/08/17 07:13:24;;;;;;;8.70;7.72;;;21.60;99.90;;;;;;4975133;28;20714;-88
2022/08/17 07:15:53;;;;;;;12.40;8.95;;;21.80;99.90;;;;;;4974793;28;20520;-89
2022/08/17 07:18:19;;;;;;;13.85;8.65;;;21.90;99.90;;;;;;4990965;28;20755;-88
2022/08/17 07:20:54;;;;;;;8.15;7.35;;;22.10;99.90;;;;;;4990823;28;20295;-88
2022/08/17 07:23:37;;;;;;;8.52;7.63;;;22.20;99.90;;;;;;4990882;28;20186;-87
2022/08/17 07:26:08;;;;;;;8.30;7.10;;;22.30;99.90;;;;;;4984432;28;20203;-88
2022/08/17 07:28:35;;;;;;;9.32;7.40;;;22.40;99.90;;;;;;4991257;28;20180;-87
2022/08/17 07:31:03;;;;;;;9.23;7.40;;;22.40;99.90;;;;;;4992192;28;20282;-90
2022/08/17 07:33:32;;;;;;;11.40;7.68;;;22.50;99.90;;;;;;4991056;28;20198;-89
2022/08/17 07:36:00;;;;;;;13.48;7.15;;;22.70;99.90;;;;;;4991123;28;20172;-85
2022/08/17 07:38:34;;;;;;;11.25;7.18;;;22.90;99.90;;;;;;4990713;28;20182;-85
2022/08/17 07:41:10;;;;;;;7.88;6.45;;;23.00;99.90;;;;;;4978761;28;20299;-87
2022/08/17 07:43:40;;;;;;;9.05;6.57;;;23.20;99.90;;;;;;4971814;28;20267;-86
2022/08/17 07:49:18;;;;;;;12.63;7.10;;;23.60;99.90;;;;;;4992522;28;20167;-87
2022/08/17 07:51:46;;;;;;;9.63;5.88;;;23.80;99.90;;;;;;4990877;28;20164;-88
2022/08/17 07:54:21;;;;;;;8.40;6.10;;;24.00;99.90;;;;;;4991741;28;20262;-85
2022/08/17 07:57:12;;;;;;;8.38;5.85;;;24.10;99.90;;;;;;4976963;28;20839;-87
2022/08/17 07:59:41;;;;;;;8.00;5.80;;;24.10;99.90;;;;;;4981130;28;20231;-86
2022/08/17 08:02:26;;;;;;;7.55;6.03;;;24.10;99.90;;;;;;4974818;28;20187;-87
2022/08/17 08:05:08;;;;;;;6.93;5.55;;;24.20;99.90;;;;;;4975717;28;20179;-88
2022/08/17 08:08:00;;;;;;;7.40;5.97;;;24.40;99.90;;;;;;4994098;28;20290;-86
2022/08/17 08:10:39;;;;;;;11.93;6.65;;;24.50;99.90;;;;;;4984536;28;20251;-86
2022/08/17 08:13:10;;;;;;;7.57;5.45;;;24.60;99.90;;;;;;4975569;28;20184;-86
2022/08/17 08:15:48;;;;;;;8.60;5.45;;;24.60;99.90;;;;;;4980155;28;20214;-85
2022/08/17 08:18:39;;;;;;;5.53;5.03;;;24.60;99.90;;;;;;4978825;28;20230;-87
2022/08/17 08:21:14;;;;;;;6.72;5.38;;;24.70;99.90;;;;;;4978702;28;20192;-86
2022/08/17 08:24:08;;;;;;;8.75;5.65;;;24.80;99.30;;;;;;4994414;28;20175;-86
2022/08/17 08:26:48;;;;;;;5.70;4.88;;;25.00;99.60;;;;;;4988540;28;20219;-85
2022/08/17 08:29:56;;;;;;;5.95;4.80;;;25.00;98.40;;;;;;4976083;28;20291;-85
2022/08/17 08:32:56;;;;;;;8.77;4.65;;;25.10;98.40;;;;;;4948737;28;20612;-88
2022/08/17 08:35:32;;;;;;;6.47;4.78;;;25.20;98.90;;;;;;4949047;28;20842;-86
2022/08/17 08:37:58;;;;;;;8.07;4.53;;;25.20;98.60;;;;;;4975091;28;20180;-86
2022/08/17 08:40:37;;;;;;;8.23;4.75;;;25.20;98.20;;;;;;4975119;28;20260;-86
2022/08/17 08:43:36;;;;;;;8.55;4.30;;;25.20;98.50;;;;;;4975095;28;20176;-85
2022/08/17 08:46:11;;;;;;;6.38;4.88;;;25.20;98.70;;;;;;4965727;28;20212;-85
2022/08/17 08:48:55;;;;;;;7.15;4.50;;;25.30;98.60;;;;;;4993939;28;20182;-86
2022/08/17 08:51:32;;;;;;;6.20;4.30;;;25.40;97.80;;;;;;4977820;28;20176;-87
2022/08/17 08:54:11;;;;;;;6.45;4.35;;;25.50;98.40;;;;;;4993697;28;20168;-86
2022/08/17 08:56:44;;;;;;;5.35;3.80;;;25.50;98.40;;;;;;4994539;28;20179;-89
2022/08/17 08:59:31;;;;;;;5.35;4.10;;;25.80;98.60;;;;;;4993985;28;20259;-88
2022/08/17 09:02:15;;;;;;;4.65;3.80;;;26.00;98.50;;;;;;4993227;28;20559;-86
2022/08/17 09:04:44;;;;;;;4.40;3.88;;;26.10;98.10;;;;;;4994327;28;20227;-88
2022/08/17 09:07:28;;;;;;;6.03;3.88;;;26.20;97.50;;;;;;4977106;28;20211;-85
2022/08/17 09:10:07;;;;;;;5.85;3.97;;;26.50;95.90;;;;;;4993218;28;20204;-86
2022/08/17 09:12:57;;;;;;;9.55;3.80;;;26.70;96.90;;;;;;4957565;28;20658;-90
2022/08/17 09:15:30;;;;;;;3.97;3.58;;;27.00;95.30;;;;;;4981542;28;20188;-86
2022/08/17 09:18:18;;;;;;;5.00;4.10;;;27.10;95.70;;;;;;4958421;28;20227;-86
2022/08/17 09:20:55;;;;;;;4.38;3.35;;;27.30;93.90;;;;;;4973260;28;20205;-87
2022/08/17 09:23:33;;;;;;;4.15;3.75;;;27.40;94.10;;;;;;4974017;28;20191;-85
2022/08/17 09:26:07;;;;;;;6.72;3.35;;;27.50;93.90;;;;;;4973930;28;20196;-87
2022/08/17 09:28:36;;;;;;;4.40;3.30;;;27.60;95.40;;;;;;4973365;28;20176;-87
2022/08/17 09:31:08;;;;;;;6.70;3.20;;;27.80;92.90;;;;;;4973971;28;20262;-86
2022/08/17 09:33:42;;;;;;;4.32;2.95;;;27.90;93.20;;;;;;4975686;28;20164;-86
2022/08/17 09:36:14;;;;;;;6.72;3.33;;;28.00;94.00;;;;;;4983142;28;20314;-85
2022/08/17 09:39:01;;;;;;;8.30;3.33;;;28.10;92.70;;;;;;4993245;28;20168;-89
2022/08/17 09:41:52;;;;;;;4.38;2.83;;;28.00;92.60;;;;;;4977078;28;20175;-85
2022/08/17 09:44:43;;;;;;;4.97;2.83;;;27.90;93.00;;;;;;4976914;28;20227;-87
2022/08/17 09:47:19;;;;;;;4.20;2.95;;;27.80;93.60;;;;;;4989652;28;20227;-85
2022/08/17 09:49:52;;;;;;;5.00;2.97;;;27.70;91.90;;;;;;4992635;28;20600;-86
2022/08/17 09:52:25;;;;;;;12.68;4.82;;;27.80;92.70;;;;;;4993979;28;20160;-83
2022/08/17 09:54:54;;;;;;;5.03;3.28;;;27.90;93.10;;;;;;4976481;28;20218;-85
2022/08/17 09:57:24;;;;;;;4.47;3.00;;;28.00;93.50;;;;;;4992651;28;20254;-85
2022/08/17 10:00:15;;;;;;;3.75;3.17;;;28.10;93.00;;;;;;4992253;28;20204;-86
2022/08/17 10:03:24;;;;;;;4.32;3.20;;;28.10;92.50;;;;;;4993003;28;20183;-86
2022/08/17 10:06:14;;;;;;;6.55;3.10;;;28.10;92.20;;;;;;4992355;28;20195;-88
2022/08/17 10:08:56;;;;;;;3.67;2.30;;;28.20;92.30;;;;;;4992274;28;20628;-85
2022/08/17 10:12:15;;;;;;;4.10;2.63;;;28.10;92.10;;;;;;4976366;28;20624;-85
2022/08/17 10:14:55;;;;;;;4.43;2.60;;;28.20;91.90;;;;;;4978147;28;20584;-86
2022/08/17 10:17:29;;;;;;;3.05;2.08;;;28.30;91.00;;;;;;4992140;28;20525;-85
2022/08/17 10:20:20;;;;;;;3.30;2.10;;;28.50;90.40;;;;;;4991935;28;20275;-87
2022/08/17 10:28:53;;;;;;;3.05;2.13;;;28.90;88.90;;;;;;4972891;28;20157;-86
2022/08/17 10:31:24;;;;;;;5.70;2.20;;;29.00;89.10;;;;;;4977555;28;20183;-87
2022/08/17 10:33:56;;;;;;;3.78;2.40;;;29.10;90.00;;;;;;4992413;28;20196;-85
2022/08/17 10:36:53;;;;;;;5.22;1.90;;;29.20;89.00;;;;;;4988629;28;20176;-86
2022/08/17 10:39:47;;;;;;;6.28;2.25;;;29.40;88.80;;;;;;4992339;28;20569;-86
2022/08/17 10:42:27;;;;;;;3.83;2.13;;;29.40;87.70;;;;;;4978844;28;20176;-85
2022/08/17 10:45:39;;;;;;;2.30;2.03;;;29.50;90.80;;;;;;4959054;28;20171;-85
2022/08/17 10:48:05;;;;;;;3.03;1.90;;;29.50;87.20;;;;;;4954401;28;20603;-86
2022/08/17 10:50:54;;;;;;;4.22;2.20;;;29.70;86.90;;;;;;4971913;28;20202;-86
2022/08/17 10:53:32;;;;;;;5.82;2.22;;;29.80;86.60;;;;;;4972356;28;20255;-86
2022/08/17 10:56:13;;;;;;;2.20;2.00;;;29.90;84.20;;;;;;4972567;28;20198;-86
2022/08/17 10:58:57;;;;;;;3.72;2.08;;;29.80;85.10;;;;;;4991393;28;20205;-89
2022/08/17 11:01:36;;;;;;;3.63;2.20;;;29.70;84.10;;;;;;4975742;28;20174;-86
2022/08/17 11:04:08;;;;;;;5.72;2.35;;;29.80;86.20;;;;;;4991857;28;20163;-86
2022/08/17 11:06:48;;;;;;;2.75;2.00;;;29.90;83.80;;;;;;4978327;28;20672;-87
2022/08/17 11:09:42;;;;;;;2.10;1.90;;;30.10;83.90;;;;;;4971949;28;20213;-88
2022/08/17 11:12:36;;;;;;;2.53;2.03;;;30.20;85.80;;;;;;4972097;28;20179;-88
2022/08/17 11:15:13;;;;;;;2.83;2.30;;;30.30;84.70;;;;;;4936860;28;20188;-86
2022/08/17 11:18:00;;;;;;;4.07;2.10;;;30.30;81.50;;;;;;4990996;28;20183;-86
2022/08/17 11:20:44;;;;;;;2.28;1.83;;;30.20;81.20;;;;;;4991069;28;20289;-87
2022/08/17 11:23:29;;;;;;;7.32;1.90;;;30.20;82.90;;;;;;4992703;28;20698;-89
2022/08/17 11:26:02;;;;;;;3.33;1.77;;;30.30;83.80;;;;;;4991357;28;20569;-88
2022/08/17 11:28:34;;;;;;;3.85;2.05;;;30.40;83.10;;;;;;4991141;28;20175;-87
2022/08/17 11:31:28;;;;;;;2.10;1.90;;;30.50;78.90;;;;;;4991071;28;20210;-88
2022/08/17 11:34:02;;;;;;;2.90;2.00;;;30.30;83.00;;;;;;4991639;28;20186;-88
2022/08/17 11:36:45;;;;;;;2.40;1.83;;;30.00;81.50;;;;;;4991274;28;20207;-86
2022/08/17 11:39:23;;;;;;;3.15;2.10;;;30.00;81.60;;;;;;4990717;28;20178;-86
2022/08/17 11:41:54;;;;;;;3.35;1.90;;;30.10;83.10;;;;;;4978081;28;20175;-89
2022/08/17 11:44:45;;;;;;;3.38;2.00;;;30.00;81.20;;;;;;4976993;28;20180;-86
2022/08/17 11:53:36;;;;;;;3.05;2.10;;;30.00;82.10;;;;;;4972974;28;20186;-88
2022/08/17 11:56:27;;;;;;;3.67;1.98;;;29.90;83.50;;;;;;4990495;28;20205;-86
2022/08/17 11:58:53;;;;;;;2.33;1.80;;;30.20;82.00;;;;;;4989557;28;20199;-86
2022/08/17 12:01:23;;;;;;;3.67;2.00;;;30.50;82.90;;;;;;4974586;28;20258;-88
2022/08/17 12:03:57;;;;;;;2.65;2.00;;;30.70;82.10;;;;;;4990871;28;20661;-86
2022/08/17 12:06:38;;;;;;;2.30;2.10;;;31.10;81.40;;;;;;4991306;28;20210;-86
2022/08/17 12:09:25;;;;;;;5.32;1.70;;;31.30;78.60;;;;;;4975100;28;20177;-86
2022/08/17 12:11:55;;;;;;;4.28;1.90;;;31.30;78.90;;;;;;4976885;28;20194;-87
2022/08/17 12:14:27;;;;;;;2.78;2.08;;;31.40;80.50;;;;;;4975150;28;20171;-87
2022/08/17 12:17:10;;;;;;;7.35;2.08;;;31.50;81.20;;;;;;4974024;28;20191;-86
2022/08/17 12:19:37;;;;;;;4.35;2.03;;;31.50;79.20;;;;;;4973598;28;20242;-85
2022/08/17 12:22:15;;;;;;;2.92;2.15;;;31.60;75.60;;;;;;4991419;28;20171;-86
2022/08/17 12:24:58;;;;;;;3.40;1.70;;;31.60;77.80;;;;;;4974493;28;20262;-87
2022/08/17 12:27:30;;;;;;;18.55;2.53;;;31.60;77.40;;;;;;4983110;28;20204;-86
2022/08/17 12:29:57;;;;;;;3.47;1.60;;;31.60;78.00;;;;;;4984341;28;20249;-86
2022/08/17 12:32:31;;;;;;;3.55;1.80;;;31.70;76.30;;;;;;4972564;28;20256;-87
2022/08/17 12:34:58;;;;;;;13.43;2.63;;;31.60;75.80;;;;;;4990305;28;20168;-86
2022/08/17 12:37:30;;;;;;;3.58;1.75;;;31.60;77.10;;;;;;4989683;28;20175;-85
2022/08/17 12:40:07;;;;;;;3.00;1.83;;;31.70;77.80;;;;;;4990307;28;20226;-88
2022/08/17 12:42:36;;;;;;;5.28;1.60;;;31.90;78.90;;;;;;4989779;28;20197;-86
2022/08/17 12:45:19;;;;;;;3.30;1.90;;;31.90;76.90;;;;;;4989746;28;20175;-86
2022/08/17 12:47:45;;;;;;;3.30;1.85;;;32.00;78.40;;;;;;4973661;28;20218;-86
2022/08/17 12:50:14;;;;;;;4.18;1.83;;;32.10;75.80;;;;;;4991416;28;20187;-85
2022/08/17 12:52:41;;;;;;;4.60;1.52;;;32.30;76.00;;;;;;4976462;28;20167;-86
2022/08/17 12:55:21;;;;;;;5.13;2.10;;;32.50;76.70;;;;;;4994788;28;20590;-86
2022/08/17 12:57:57;;;;;;;4.05;2.20;;;32.50;74.50;;;;;;4976718;28;20178;-86
2022/08/17 13:00:31;;;;;;;4.93;1.75;;;32.50;76.20;;;;;;4967077;28;20203;-88
2022/08/17 13:03:07;;;;;;;2.17;1.58;;;32.60;75.20;;;;;;4974835;28;20160;-86
2022/08/17 13:05:40;;;;;;;3.80;1.85;;;32.60;72.30;;;;;;4957404;28;20643;-85
2022/08/17 13:08:16;;;;;;;3.58;1.77;;;32.60;76.10;;;;;;4957705;28;20191;-85
2022/08/17 13:10:55;;;;;;;3.10;1.70;;;32.60;75.00;;;;;;4975112;28;20542;-85
2022/08/17 13:13:33;;;;;;;3.97;1.73;;;32.40;73.50;;;;;;4984194;28;20242;-88
2022/08/17 13:16:15;;;;;;;2.70;1.70;;;32.30;74.10;;;;;;4985297;28;20709;-85
2022/08/17 13:18:45;;;;;;;3.15;1.83;;;32.40;74.10;;;;;;4972583;28;20235;-86
2022/08/17 13:21:25;;;;;;;1.95;1.73;;;32.30;72.40;;;;;;4974143;28;20714;-87
2022/08/17 13:23:59;;;;;;;2.80;1.60;;;32.10;73.20;;;;;;4973476;28;20187;-87
2022/08/17 13:26:32;;;;;;;2.17;1.88;;;32.20;74.70;;;;;;4973177;28;20722;-86
2022/08/17 13:28:59;;;;;;;3.75;2.00;;;32.30;74.10;;;;;;4962287;28;20260;-87
2022/08/17 13:31:28;;;;;;;2.28;1.73;;;32.40;76.30;;;;;;4952746;28;20180;-87
2022/08/17 13:34:16;;;;;;;3.65;1.60;;;32.40;74.40;;;;;;4953544;29;20169;-89
2022/08/17 13:36:43;;;;;;;3.83;1.80;;;32.20;75.10;;;;;;4953278;29;20184;-87
2022/08/17 13:39:39;;;;;;;2.75;1.90;;;31.90;75.10;;;;;;4953336;28;20219;-86
2022/08/17 13:42:26;;;;;;;9.98;2.00;;;31.70;76.10;;;;;;4953473;29;20191;-87
2022/08/17 13:44:52;;;;;;;3.58;1.70;;;31.60;72.80;;;;;;4953716;28;20700;-86
2022/08/17 13:47:20;;;;;;;2.05;1.70;;;31.50;72.90;;;;;;4971393;28;20207;-89
2022/08/17 13:49:47;;;;;;;3.92;1.70;;;31.60;73.00;;;;;;4953449;28;20201;-86
2022/08/17 13:52:36;;;;;;;3.58;1.60;;;31.80;74.90;;;;;;4953836;28;20173;-86
2022/08/17 13:55:15;;;;;;;3.38;1.60;;;32.10;73.90;;;;;;4966051;28;20263;-86
2022/08/17 13:57:46;;;;;;;3.25;1.88;;;32.20;72.50;;;;;;4953444;28;20546;-86
2022/08/17 14:00:29;;;;;;;1.92;1.77;;;32.00;73.70;;;;;;4953999;28;20209;-86
2022/08/17 14:03:00;;;;;;;1.58;1.48;;;31.90;72.90;;;;;;4953062;28;20191;-87
2022/08/17 14:05:27;;;;;;;2.40;1.70;;;31.60;73.50;;;;;;4952910;28;20231;-86